Webcam Flughafen St.Gallen-Altenrhein

Live-Bilder und Zeitraffer LSZR / ACH.

 

Live aus Altenrhein
LIVE
LSZR 252120Z AUTO VRB03KT CAVOK 08/05 Q1035
Zeitraffer heute
2018-09-25 00:14:00
LSZR 242150Z AUTO 11003KT CAVOK 07/04 Q1035
Zeitraffer gestern
2018-09-24 00:14:41
LSZR 232150Z AUTO 25008KT 200V290 9999 RA BKN050 14/11 Q1022
Zeitraffer vor 3 Tagen
2018-09-22 00:00:00
LSZR 212150Z AUTO VRB02KT 9999 -RA OVC050 13/10 Q1022